METAR Data

Data at: 0935 UTC 23 Jul 2019

METAR for:KPHX (Phoenix/Sky Harbor, AZ, US)
Text:KPHX 230851Z 09008KT 10SM FEW090 SCT120 BKN170 OVC200 28/20 A3001 RMK AO2 SLP141 60000 T02830200 58005
Temperature: 28.3°C ( 83°F)
Dewpoint: 20.0°C ( 68°F) [RH = 61%]
Pressure (altimeter):30.01 inches Hg (1016.3 mb) [Sea level pressure: 1014.1 mb]
Winds:from the E (90 degrees) at 9 MPH (8 knots; 4.1 m/s)
Visibility:10 or more sm (16+ km)
Ceiling:17000 feet AGL
Clouds: few clouds at 9000 feet AGL, scattered clouds at 12000 feet AGL, broken clouds at 17000 feet AGL, overcast cloud deck at 20000 feet AGL